Farmington, NM (87401)

8:43 AM MDT on September 30, 2014 (GMT -0600)
Butler and 23rd Street | Change Station
CLOSE
Current Station
Personal Weather Station
Location: Farmington, NM
Elevation: 5500 ft
Nearby Weather Stations

Elev 5500 ft 36.75 °N, 108.20 °W | Updated 6 seconds ago

Clear
Clear
48.0 °F
Feels Like 46 °F
N
5.0
Wind Variable Wind from East
Gusts 10.0 mph

Today
High -- | Low -- °F
--% Chance of Precip.
Yesterday
High -- | Low -- °F
Precip. -- in
7:07 AM 6:57 PM
Waxing Crescent, 37% visible
Pressure 30.00 in
Visibility 10.0 miles
Clouds Clear
Windchill 46 °F
Dew Point 40 °F
Humidity 75%
Rainfall 0.00 in
Snow Depth 0 in , 1 in , 0 in
UV 0 out of 12
Pollen 4.70 out of 12
Air Quality Not available.
Flu Activity Not available.
METAR KFMN 301353Z 08005KT 10SM CLR 06/04 A3005 RMK AO2 SLP158 T00610044

More Conditions Fewer Conditions

Pressure 30.00 in
Visibility 10.0 miles
Clouds Clear
Windchill 46 °F
Dew Point 40 °F
Humidity 75%
Rainfall 0.00 in
Snow Depth 0 in , 1 in , 0 in
UV 0 out of 12
Pollen 4.70 out of 12
Air Quality Not available.
Flu Activity Not available.
METAR KFMN 301353Z 08005KT 10SM CLR 06/04 A3005 RMK AO2 SLP158 T00610044

More Conditions Fewer Conditions

10-Day Weather Forecast

Almanac

Astronomy

Sep. 30, 2014 Rise Set
Actual Time 7:07 AM MDT 6:57 PM MDT
Civil Twilight 6:41 AM MDT 7:23 PM MDT
Nautical Twilight 6:11 AM MDT 7:53 PM MDT
Astronomical Twilight 5:41 AM MDT 8:23 PM MDT
Moon 1:11 PM MDT 11:37 PM MDT
Length of Visible Light 12h 41m
Length of Day
11h 50m
Tomorrow will be 2m 19s shorter.
Waxing Crescent, 37% of the Moon is Illuminated
Today
Waxing Crescent
Oct 1
First Quarter
Oct 8
Full
Oct 15
Last Quarter
Oct 23
New

Today's Extremes

State Highs State Lows

Community

WunderPhotos

Upload Photos

1,757,641 photos uploaded!

WunderBlogs® & News

By Dr. Jeff Masters
Director of Meteorology, Weather Underground
By Kari Strenfel
Meteorologist, Weather Underground
By Christopher C. Burt
Weather Historian, Weather Underground
September 30, 2014
September 30, 2014
September 30, 2014

Nearby

Snow Depth

Station Depth Elevation
Santa Fe 0 in 11445 ft
Elk Cabin 1 in 8210 ft
Frisco Divide 0 in 8000 ft
Wesner Springs 3 in 11120 ft
Silver Creek Divide 19 in 9000 ft

Earthquake Activity

City Distance Mag. Time & Date
No recent earthquake activity has been reported nearby.
Minimum magnitude displayed is 2.5.

Coastal Water Temperatures

Place Temperature
No Stations Reporting

Nearby Weather Stations